Terminal Aerodrome Forecast
Issued by NWS Shreveport, LA

Current Version | Previous Version | Text Only | Print | Product List | Glossary On
Versions: 1 2 3 4 5 6 7 8 9 10 11 12 13 14 15 16 17 18 19 20 21 22 23
978
FTUS44 KSHV 230522
TAFGGG
TAF
KGGG 230522Z 2306/2406 03003KT P6SM BKN019 OVC035
      TEMPO 2308/2312 2SM BR OVC001
     FM231500 33005KT P6SM VCSH OVC015
     FM231800 32006KT P6SM VCTS OVC015CB
     FM232100 31007KT P6SM -TSRA OVC050CB
     FM240300 33007KT P6SM SCT250=

USA.gov is the U.S. government's official web portal to all federal, state and local government web resources and services.